sensor_id;sensor_type;location;lat;lon;timestamp;P1;durP1;ratioP1;P2;durP2;ratioP2
3845;SDS011;1938;50.812;7.738;2022-10-15T00:02:10;7.93;;;3.93;;
3845;SDS011;1938;50.812;7.738;2022-10-15T00:04:36;13.73;;;5.00;;
3845;SDS011;1938;50.812;7.738;2022-10-15T00:07:02;6.50;;;3.83;;
3845;SDS011;1938;50.812;7.738;2022-10-15T00:09:28;21.47;;;5.57;;
3845;SDS011;1938;50.812;7.738;2022-10-15T00:11:54;9.03;;;5.60;;
3845;SDS011;1938;50.812;7.738;2022-10-15T00:14:19;18.53;;;5.43;;
3845;SDS011;1938;50.812;7.738;2022-10-15T00:16:45;157.47;;;8.10;;
3845;SDS011;1938;50.812;7.738;2022-10-15T00:19:11;61.17;;;7.70;;
3845;SDS011;1938;50.812;7.738;2022-10-15T00:21:37;11.80;;;4.10;;
3845;SDS011;1938;50.812;7.738;2022-10-15T00:24:03;16.67;;;4.10;;
3845;SDS011;1938;50.812;7.738;2022-10-15T00:26:29;6.03;;;3.80;;
3845;SDS011;1938;50.812;7.738;2022-10-15T00:28:56;7.10;;;4.23;;
3845;SDS011;1938;50.812;7.738;2022-10-15T00:31:24;6.03;;;3.67;;
3845;SDS011;1938;50.812;7.738;2022-10-15T00:33:53;5.70;;;3.87;;
3845;SDS011;1938;50.812;7.738;2022-10-15T00:36:25;6.10;;;3.30;;
3845;SDS011;1938;50.812;7.738;2022-10-15T00:38:53;5.53;;;3.17;;
3845;SDS011;1938;50.812;7.738;2022-10-15T00:41:27;4.70;;;2.60;;
3845;SDS011;1938;50.812;7.738;2022-10-15T00:43:55;4.23;;;2.80;;
3845;SDS011;1938;50.812;7.738;2022-10-15T00:46:24;13.13;;;3.20;;
3845;SDS011;1938;50.812;7.738;2022-10-15T00:48:56;6.50;;;3.00;;
3845;SDS011;1938;50.812;7.738;2022-10-15T00:51:40;11.00;;;3.30;;
3845;SDS011;1938;50.812;7.738;2022-10-15T00:54:09;6.30;;;3.20;;
3845;SDS011;1938;50.812;7.738;2022-10-15T00:56:36;4.20;;;2.70;;
3845;SDS011;1938;50.812;7.738;2022-10-15T00:59:04;7.90;;;2.80;;
3845;SDS011;1938;50.812;7.738;2022-10-15T01:01:31;8.40;;;2.80;;
3845;SDS011;1938;50.812;7.738;2022-10-15T01:03:57;5.90;;;2.50;;
3845;SDS011;1938;50.812;7.738;2022-10-15T01:06:24;6.73;;;2.67;;
3845;SDS011;1938;50.812;7.738;2022-10-15T01:08:50;4.30;;;2.33;;
3845;SDS011;1938;50.812;7.738;2022-10-15T01:16:49;4.17;;;2.70;;
3845;SDS011;1938;50.812;7.738;2022-10-15T01:22:30;7.50;;;2.73;;
3845;SDS011;1938;50.812;7.738;2022-10-15T01:30:57;3.90;;;2.30;;
3845;SDS011;1938;50.812;7.738;2022-10-15T01:38:47;3.87;;;1.80;;
3845;SDS011;1938;50.812;7.738;2022-10-15T01:41:35;4.60;;;1.80;;
3845;SDS011;1938;50.812;7.738;2022-10-15T01:44:10;2.90;;;1.70;;
3845;SDS011;1938;50.812;7.738;2022-10-15T01:47:00;3.27;;;1.57;;
3845;SDS011;1938;50.812;7.738;2022-10-15T01:49:30;2.77;;;1.37;;
3845;SDS011;1938;50.812;7.738;2022-10-15T01:52:01;2.93;;;1.40;;
3845;SDS011;1938;50.812;7.738;2022-10-15T01:54:31;3.20;;;1.90;;
3845;SDS011;1938;50.812;7.738;2022-10-15T01:56:57;3.07;;;1.80;;
3845;SDS011;1938;50.812;7.738;2022-10-15T01:59:25;3.40;;;1.60;;
3845;SDS011;1938;50.812;7.738;2022-10-15T02:01:53;2.77;;;1.47;;
3845;SDS011;1938;50.812;7.738;2022-10-15T02:04:20;3.33;;;1.53;;
3845;SDS011;1938;50.812;7.738;2022-10-15T02:07:08;2.80;;;1.27;;
3845;SDS011;1938;50.812;7.738;2022-10-15T02:09:44;2.63;;;1.37;;
3845;SDS011;1938;50.812;7.738;2022-10-15T02:15:24;5.67;;;1.90;;
3845;SDS011;1938;50.812;7.738;2022-10-15T02:23:14;19.20;;;2.60;;
3845;SDS011;1938;50.812;7.738;2022-10-15T02:26:06;21.50;;;2.40;;
3845;SDS011;1938;50.812;7.738;2022-10-15T02:28:34;6.80;;;2.13;;
3845;SDS011;1938;50.812;7.738;2022-10-15T02:31:02;7.17;;;2.57;;
3845;SDS011;1938;50.812;7.738;2022-10-15T02:33:30;9.10;;;2.33;;
3845;SDS011;1938;50.812;7.738;2022-10-15T02:35:57;7.07;;;2.90;;
3845;SDS011;1938;50.812;7.738;2022-10-15T02:38:23;36.27;;;3.13;;
3845;SDS011;1938;50.812;7.738;2022-10-15T02:40:52;12.40;;;3.07;;
3845;SDS011;1938;50.812;7.738;2022-10-15T02:43:19;6.00;;;2.53;;
3845;SDS011;1938;50.812;7.738;2022-10-15T02:45:46;5.10;;;2.70;;
3845;SDS011;1938;50.812;7.738;2022-10-15T02:48:12;16.97;;;2.17;;
3845;SDS011;1938;50.812;7.738;2022-10-15T02:50:38;5.80;;;2.33;;
3845;SDS011;1938;50.812;7.738;2022-10-15T02:53:04;5.53;;;3.40;;
3845;SDS011;1938;50.812;7.738;2022-10-15T02:55:30;6.53;;;2.80;;
3845;SDS011;1938;50.812;7.738;2022-10-15T02:57:56;4.00;;;2.70;;
3845;SDS011;1938;50.812;7.738;2022-10-15T03:00:21;4.83;;;2.97;;
3845;SDS011;1938;50.812;7.738;2022-10-15T03:02:47;4.07;;;2.33;;
3845;SDS011;1938;50.812;7.738;2022-10-15T03:05:13;4.90;;;2.20;;
3845;SDS011;1938;50.812;7.738;2022-10-15T03:07:38;6.23;;;3.17;;
3845;SDS011;1938;50.812;7.738;2022-10-15T03:10:04;5.23;;;3.17;;
3845;SDS011;1938;50.812;7.738;2022-10-15T03:12:30;8.30;;;3.23;;
3845;SDS011;1938;50.812;7.738;2022-10-15T03:14:56;7.10;;;3.47;;
3845;SDS011;1938;50.812;7.738;2022-10-15T03:17:21;55.23;;;4.80;;
3845;SDS011;1938;50.812;7.738;2022-10-15T03:19:47;31.77;;;4.33;;
3845;SDS011;1938;50.812;7.738;2022-10-15T03:22:12;31.13;;;6.30;;
3845;SDS011;1938;50.812;7.738;2022-10-15T03:24:38;123.63;;;9.37;;
3845;SDS011;1938;50.812;7.738;2022-10-15T03:27:03;28.33;;;3.80;;
3845;SDS011;1938;50.812;7.738;2022-10-15T03:29:29;76.07;;;7.63;;
3845;SDS011;1938;50.812;7.738;2022-10-15T03:31:55;23.93;;;4.20;;
3845;SDS011;1938;50.812;7.738;2022-10-15T03:34:20;33.17;;;5.80;;
3845;SDS011;1938;50.812;7.738;2022-10-15T03:36:46;37.23;;;5.87;;
3845;SDS011;1938;50.812;7.738;2022-10-15T03:39:11;45.40;;;6.67;;
3845;SDS011;1938;50.812;7.738;2022-10-15T03:41:37;51.07;;;7.87;;
3845;SDS011;1938;50.812;7.738;2022-10-15T03:44:03;26.73;;;5.80;;
3845;SDS011;1938;50.812;7.738;2022-10-15T03:46:30;69.53;;;7.27;;
3845;SDS011;1938;50.812;7.738;2022-10-15T03:48:57;21.50;;;6.37;;
3845;SDS011;1938;50.812;7.738;2022-10-15T03:51:23;18.23;;;6.70;;
3845;SDS011;1938;50.812;7.738;2022-10-15T03:53:49;27.33;;;7.37;;
3845;SDS011;1938;50.812;7.738;2022-10-15T03:56:14;15.80;;;7.37;;
3845;SDS011;1938;50.812;7.738;2022-10-15T03:58:40;15.73;;;6.97;;
3845;SDS011;1938;50.812;7.738;2022-10-15T04:01:09;17.50;;;7.30;;
3845;SDS011;1938;50.812;7.738;2022-10-15T04:03:36;24.70;;;8.80;;
3845;SDS011;1938;50.812;7.738;2022-10-15T04:06:02;19.50;;;8.03;;
3845;SDS011;1938;50.812;7.738;2022-10-15T04:08:28;22.23;;;10.70;;
3845;SDS011;1938;50.812;7.738;2022-10-15T04:10:53;26.50;;;10.13;;
3845;SDS011;1938;50.812;7.738;2022-10-15T04:13:19;25.93;;;10.33;;
3845;SDS011;1938;50.812;7.738;2022-10-15T04:15:44;25.37;;;10.07;;
3845;SDS011;1938;50.812;7.738;2022-10-15T04:18:10;23.17;;;10.90;;
3845;SDS011;1938;50.812;7.738;2022-10-15T04:20:36;24.13;;;10.90;;
3845;SDS011;1938;50.812;7.738;2022-10-15T04:23:02;27.37;;;10.27;;
3845;SDS011;1938;50.812;7.738;2022-10-15T04:25:27;41.13;;;10.80;;
3845;SDS011;1938;50.812;7.738;2022-10-15T04:27:53;29.63;;;12.00;;
3845;SDS011;1938;50.812;7.738;2022-10-15T04:30:19;24.60;;;12.00;;
3845;SDS011;1938;50.812;7.738;2022-10-15T04:32:44;34.03;;;11.00;;
3845;SDS011;1938;50.812;7.738;2022-10-15T04:35:10;25.53;;;10.20;;
3845;SDS011;1938;50.812;7.738;2022-10-15T04:37:36;25.40;;;11.83;;
3845;SDS011;1938;50.812;7.738;2022-10-15T04:40:02;25.50;;;10.83;;
3845;SDS011;1938;50.812;7.738;2022-10-15T04:42:29;24.60;;;10.87;;
3845;SDS011;1938;50.812;7.738;2022-10-15T04:44:55;23.40;;;12.43;;
3845;SDS011;1938;50.812;7.738;2022-10-15T04:47:21;22.67;;;11.43;;
3845;SDS011;1938;50.812;7.738;2022-10-15T04:49:47;21.70;;;11.00;;
3845;SDS011;1938;50.812;7.738;2022-10-15T04:52:13;21.17;;;11.87;;
3845;SDS011;1938;50.812;7.738;2022-10-15T04:54:39;21.03;;;11.03;;
3845;SDS011;1938;50.812;7.738;2022-10-15T04:57:04;20.50;;;11.67;;
3845;SDS011;1938;50.812;7.738;2022-10-15T04:59:30;24.80;;;12.23;;
3845;SDS011;1938;50.812;7.738;2022-10-15T05:01:56;25.70;;;11.83;;
3845;SDS011;1938;50.812;7.738;2022-10-15T05:04:22;20.17;;;10.70;;
3845;SDS011;1938;50.812;7.738;2022-10-15T05:06:47;19.87;;;9.90;;
3845;SDS011;1938;50.812;7.738;2022-10-15T05:09:13;21.00;;;10.93;;
3845;SDS011;1938;50.812;7.738;2022-10-15T05:11:39;21.30;;;11.10;;
3845;SDS011;1938;50.812;7.738;2022-10-15T05:14:04;21.77;;;11.30;;
3845;SDS011;1938;50.812;7.738;2022-10-15T05:16:31;25.07;;;13.03;;
3845;SDS011;1938;50.812;7.738;2022-10-15T05:18:59;33.23;;;18.00;;
3845;SDS011;1938;50.812;7.738;2022-10-15T05:21:27;51.83;;;33.30;;
3845;SDS011;1938;50.812;7.738;2022-10-15T05:23:54;23.30;;;12.33;;
3845;SDS011;1938;50.812;7.738;2022-10-15T05:26:21;18.47;;;10.60;;
3845;SDS011;1938;50.812;7.738;2022-10-15T05:28:48;19.90;;;11.30;;
3845;SDS011;1938;50.812;7.738;2022-10-15T05:31:16;20.70;;;10.60;;
3845;SDS011;1938;50.812;7.738;2022-10-15T05:33:44;20.30;;;10.97;;
3845;SDS011;1938;50.812;7.738;2022-10-15T05:36:17;17.53;;;10.10;;
3845;SDS011;1938;50.812;7.738;2022-10-15T05:38:43;15.20;;;9.43;;
3845;SDS011;1938;50.812;7.738;2022-10-15T05:41:11;22.67;;;11.10;;
3845;SDS011;1938;50.812;7.738;2022-10-15T05:43:36;17.57;;;10.67;;
3845;SDS011;1938;50.812;7.738;2022-10-15T05:46:02;18.50;;;9.87;;
3845;SDS011;1938;50.812;7.738;2022-10-15T05:48:28;15.40;;;9.57;;
3845;SDS011;1938;50.812;7.738;2022-10-15T05:51:05;18.60;;;9.80;;
3845;SDS011;1938;50.812;7.738;2022-10-15T05:53:32;18.67;;;9.63;;
3845;SDS011;1938;50.812;7.738;2022-10-15T05:55:58;20.80;;;11.40;;
3845;SDS011;1938;50.812;7.738;2022-10-15T05:58:27;14.80;;;9.23;;
3845;SDS011;1938;50.812;7.738;2022-10-15T06:00:55;15.70;;;9.43;;
3845;SDS011;1938;50.812;7.738;2022-10-15T06:03:22;17.83;;;9.90;;
3845;SDS011;1938;50.812;7.738;2022-10-15T06:05:48;15.93;;;9.30;;
3845;SDS011;1938;50.812;7.738;2022-10-15T06:08:14;17.67;;;9.03;;
3845;SDS011;1938;50.812;7.738;2022-10-15T06:10:41;18.33;;;9.60;;
3845;SDS011;1938;50.812;7.738;2022-10-15T06:13:07;15.77;;;9.27;;
3845;SDS011;1938;50.812;7.738;2022-10-15T06:15:33;20.03;;;9.50;;
3845;SDS011;1938;50.812;7.738;2022-10-15T06:17:59;15.13;;;8.50;;
3845;SDS011;1938;50.812;7.738;2022-10-15T06:20:26;16.80;;;9.50;;
3845;SDS011;1938;50.812;7.738;2022-10-15T06:22:55;17.63;;;9.00;;
3845;SDS011;1938;50.812;7.738;2022-10-15T06:25:24;18.83;;;10.27;;
3845;SDS011;1938;50.812;7.738;2022-10-15T06:27:51;16.17;;;8.67;;
3845;SDS011;1938;50.812;7.738;2022-10-15T06:30:18;16.70;;;10.00;;
3845;SDS011;1938;50.812;7.738;2022-10-15T06:32:48;23.07;;;12.90;;
3845;SDS011;1938;50.812;7.738;2022-10-15T06:35:15;21.47;;;13.10;;
3845;SDS011;1938;50.812;7.738;2022-10-15T06:37:41;21.10;;;12.60;;
3845;SDS011;1938;50.812;7.738;2022-10-15T06:40:09;21.03;;;10.90;;
3845;SDS011;1938;50.812;7.738;2022-10-15T06:42:35;15.03;;;10.33;;
3845;SDS011;1938;50.812;7.738;2022-10-15T06:45:01;14.37;;;8.90;;
3845;SDS011;1938;50.812;7.738;2022-10-15T06:47:27;17.50;;;9.40;;
3845;SDS011;1938;50.812;7.738;2022-10-15T06:49:54;17.20;;;10.37;;
3845;SDS011;1938;50.812;7.738;2022-10-15T06:52:20;27.20;;;10.20;;
3845;SDS011;1938;50.812;7.738;2022-10-15T06:54:45;80.53;;;46.43;;
3845;SDS011;1938;50.812;7.738;2022-10-15T06:57:11;42.13;;;22.27;;
3845;SDS011;1938;50.812;7.738;2022-10-15T06:59:37;16.40;;;9.27;;
3845;SDS011;1938;50.812;7.738;2022-10-15T07:02:03;21.20;;;8.93;;
3845;SDS011;1938;50.812;7.738;2022-10-15T07:04:28;13.90;;;7.90;;
3845;SDS011;1938;50.812;7.738;2022-10-15T07:06:54;15.03;;;10.23;;
3845;SDS011;1938;50.812;7.738;2022-10-15T07:09:21;15.30;;;9.00;;
3845;SDS011;1938;50.812;7.738;2022-10-15T07:11:46;12.97;;;7.80;;
3845;SDS011;1938;50.812;7.738;2022-10-15T07:14:12;14.80;;;8.23;;
3845;SDS011;1938;50.812;7.738;2022-10-15T07:16:37;14.23;;;7.07;;
3845;SDS011;1938;50.812;7.738;2022-10-15T07:19:05;15.27;;;7.13;;
3845;SDS011;1938;50.812;7.738;2022-10-15T07:21:32;9.40;;;6.00;;
3845;SDS011;1938;50.812;7.738;2022-10-15T07:23:58;10.73;;;5.60;;
3845;SDS011;1938;50.812;7.738;2022-10-15T07:26:24;8.73;;;5.20;;
3845;SDS011;1938;50.812;7.738;2022-10-15T07:28:53;10.17;;;6.27;;
3845;SDS011;1938;50.812;7.738;2022-10-15T07:31:19;10.17;;;5.70;;
3845;SDS011;1938;50.812;7.738;2022-10-15T07:33:44;7.40;;;4.50;;
3845;SDS011;1938;50.812;7.738;2022-10-15T07:36:10;9.43;;;5.27;;
3845;SDS011;1938;50.812;7.738;2022-10-15T07:38:39;7.43;;;4.37;;
3845;SDS011;1938;50.812;7.738;2022-10-15T07:41:05;7.00;;;4.60;;
3845;SDS011;1938;50.812;7.738;2022-10-15T07:43:33;7.20;;;3.90;;
3845;SDS011;1938;50.812;7.738;2022-10-15T07:46:00;7.60;;;4.17;;
3845;SDS011;1938;50.812;7.738;2022-10-15T07:48:26;6.77;;;3.67;;
3845;SDS011;1938;50.812;7.738;2022-10-15T07:53:26;5.80;;;3.30;;
3845;SDS011;1938;50.812;7.738;2022-10-15T07:55:52;10.63;;;5.50;;
3845;SDS011;1938;50.812;7.738;2022-10-15T07:58:18;6.20;;;4.50;;
3845;SDS011;1938;50.812;7.738;2022-10-15T08:00:44;10.40;;;5.03;;
3845;SDS011;1938;50.812;7.738;2022-10-15T08:03:10;6.60;;;4.30;;
3845;SDS011;1938;50.812;7.738;2022-10-15T08:05:35;8.23;;;4.00;;
3845;SDS011;1938;50.812;7.738;2022-10-15T08:08:02;7.20;;;4.27;;
3845;SDS011;1938;50.812;7.738;2022-10-15T08:10:28;7.70;;;4.97;;
3845;SDS011;1938;50.812;7.738;2022-10-15T08:12:54;6.60;;;4.10;;
3845;SDS011;1938;50.812;7.738;2022-10-15T08:15:20;9.40;;;4.87;;
3845;SDS011;1938;50.812;7.738;2022-10-15T08:17:45;9.83;;;4.93;;
3845;SDS011;1938;50.812;7.738;2022-10-15T08:20:11;6.50;;;4.03;;
3845;SDS011;1938;50.812;7.738;2022-10-15T08:22:36;5.80;;;3.83;;
3845;SDS011;1938;50.812;7.738;2022-10-15T08:25:03;7.70;;;4.23;;
3845;SDS011;1938;50.812;7.738;2022-10-15T08:27:29;8.23;;;4.60;;
3845;SDS011;1938;50.812;7.738;2022-10-15T08:29:56;7.13;;;3.57;;
3845;SDS011;1938;50.812;7.738;2022-10-15T08:32:21;10.10;;;5.30;;
3845;SDS011;1938;50.812;7.738;2022-10-15T08:34:47;18.70;;;4.80;;
3845;SDS011;1938;50.812;7.738;2022-10-15T08:37:12;10.87;;;4.03;;
3845;SDS011;1938;50.812;7.738;2022-10-15T08:39:38;5.00;;;3.20;;
3845;SDS011;1938;50.812;7.738;2022-10-15T08:42:04;8.70;;;3.43;;
3845;SDS011;1938;50.812;7.738;2022-10-15T08:44:40;6.17;;;3.80;;
3845;SDS011;1938;50.812;7.738;2022-10-15T08:47:28;7.17;;;3.73;;
3845;SDS011;1938;50.812;7.738;2022-10-15T08:52:45;5.30;;;2.60;;
3845;SDS011;1938;50.812;7.738;2022-10-15T08:55:15;4.60;;;2.63;;
3845;SDS011;1938;50.812;7.738;2022-10-15T08:57:48;5.60;;;3.10;;
3845;SDS011;1938;50.812;7.738;2022-10-15T09:00:23;4.70;;;2.80;;
3845;SDS011;1938;50.812;7.738;2022-10-15T09:02:59;7.93;;;2.57;;
3845;SDS011;1938;50.812;7.738;2022-10-15T09:08:25;4.10;;;2.17;;
3845;SDS011;1938;50.812;7.738;2022-10-15T09:11:17;4.07;;;2.07;;
3845;SDS011;1938;50.812;7.738;2022-10-15T09:14:08;3.57;;;1.97;;
3845;SDS011;1938;50.812;7.738;2022-10-15T09:16:39;3.90;;;1.90;;
3845;SDS011;1938;50.812;7.738;2022-10-15T09:19:11;3.40;;;1.57;;
3845;SDS011;1938;50.812;7.738;2022-10-15T09:21:49;5.07;;;1.80;;
3845;SDS011;1938;50.812;7.738;2022-10-15T09:24:26;4.47;;;2.00;;
3845;SDS011;1938;50.812;7.738;2022-10-15T09:29:49;4.60;;;1.33;;
3845;SDS011;1938;50.812;7.738;2022-10-15T09:35:16;3.50;;;1.37;;
3845;SDS011;1938;50.812;7.738;2022-10-15T09:38:22;3.73;;;1.40;;
3845;SDS011;1938;50.812;7.738;2022-10-15T09:43:35;3.43;;;1.40;;
3845;SDS011;1938;50.812;7.738;2022-10-15T09:46:02;4.20;;;1.93;;
3845;SDS011;1938;50.812;7.738;2022-10-15T09:48:36;4.70;;;2.20;;
3845;SDS011;1938;50.812;7.738;2022-10-15T09:54:04;2.20;;;0.80;;
3845;SDS011;1938;50.812;7.738;2022-10-15T09:59:00;2.53;;;1.13;;
3845;SDS011;1938;50.812;7.738;2022-10-15T10:01:28;3.43;;;1.00;;
3845;SDS011;1938;50.812;7.738;2022-10-15T10:09:35;3.30;;;1.10;;
3845;SDS011;1938;50.812;7.738;2022-10-15T10:12:22;3.80;;;0.90;;
3845;SDS011;1938;50.812;7.738;2022-10-15T10:14:53;2.70;;;1.20;;
3845;SDS011;1938;50.812;7.738;2022-10-15T10:17:24;5.40;;;1.43;;
3845;SDS011;1938;50.812;7.738;2022-10-15T10:30:37;2.60;;;1.20;;
3845;SDS011;1938;50.812;7.738;2022-10-15T10:33:09;2.73;;;1.30;;
3845;SDS011;1938;50.812;7.738;2022-10-15T10:35:45;2.20;;;0.80;;
3845;SDS011;1938;50.812;7.738;2022-10-15T10:38:24;4.60;;;1.07;;
3845;SDS011;1938;50.812;7.738;2022-10-15T10:40:54;4.53;;;1.00;;
3845;SDS011;1938;50.812;7.738;2022-10-15T10:43:26;5.83;;;1.20;;
3845;SDS011;1938;50.812;7.738;2022-10-15T10:53:34;2.93;;;1.23;;
3845;SDS011;1938;50.812;7.738;2022-10-15T10:56:08;2.50;;;1.10;;
3845;SDS011;1938;50.812;7.738;2022-10-15T10:58:37;3.33;;;1.23;;
3845;SDS011;1938;50.812;7.738;2022-10-15T11:01:04;3.00;;;1.07;;
3845;SDS011;1938;50.812;7.738;2022-10-15T11:03:31;3.03;;;1.00;;
3845;SDS011;1938;50.812;7.738;2022-10-15T11:06:22;2.50;;;1.00;;
3845;SDS011;1938;50.812;7.738;2022-10-15T11:09:11;3.63;;;1.10;;
3845;SDS011;1938;50.812;7.738;2022-10-15T11:20:17;5.27;;;2.70;;
3845;SDS011;1938;50.812;7.738;2022-10-15T11:26:00;2.17;;;0.87;;
3845;SDS011;1938;50.812;7.738;2022-10-15T11:45:26;9.07;;;5.43;;
3845;SDS011;1938;50.812;7.738;2022-10-15T11:48:17;2.40;;;1.00;;
3845;SDS011;1938;50.812;7.738;2022-10-15T11:50:56;4.97;;;2.20;;
3845;SDS011;1938;50.812;7.738;2022-10-15T11:56:27;3.17;;;0.80;;
3845;SDS011;1938;50.812;7.738;2022-10-15T11:59:04;2.87;;;0.80;;
3845;SDS011;1938;50.812;7.738;2022-10-15T12:01:38;2.70;;;1.10;;
3845;SDS011;1938;50.812;7.738;2022-10-15T12:04:19;3.30;;;1.00;;
3845;SDS011;1938;50.812;7.738;2022-10-15T12:06:55;2.60;;;0.80;;
3845;SDS011;1938;50.812;7.738;2022-10-15T12:09:28;2.10;;;0.80;;
3845;SDS011;1938;50.812;7.738;2022-10-15T12:14:33;2.83;;;1.00;;
3845;SDS011;1938;50.812;7.738;2022-10-15T12:17:20;2.20;;;0.80;;
3845;SDS011;1938;50.812;7.738;2022-10-15T12:19:55;2.40;;;0.90;;
3845;SDS011;1938;50.812;7.738;2022-10-15T12:25:02;2.80;;;1.00;;
3845;SDS011;1938;50.812;7.738;2022-10-15T12:27:33;5.27;;;1.00;;
3845;SDS011;1938;50.812;7.738;2022-10-15T12:32:36;5.40;;;0.80;;
3845;SDS011;1938;50.812;7.738;2022-10-15T12:35:05;2.60;;;0.80;;
3845;SDS011;1938;50.812;7.738;2022-10-15T12:37:51;2.47;;;0.93;;
3845;SDS011;1938;50.812;7.738;2022-10-15T12:42:48;10.43;;;1.23;;
3845;SDS011;1938;50.812;7.738;2022-10-15T12:45:28;3.03;;;0.80;;
3845;SDS011;1938;50.812;7.738;2022-10-15T12:50:28;2.30;;;0.90;;
3845;SDS011;1938;50.812;7.738;2022-10-15T12:52:57;2.50;;;0.97;;
3845;SDS011;1938;50.812;7.738;2022-10-15T12:57:54;5.37;;;2.03;;
3845;SDS011;1938;50.812;7.738;2022-10-15T13:02:49;2.70;;;0.90;;
3845;SDS011;1938;50.812;7.738;2022-10-15T13:07:56;2.80;;;1.30;;
3845;SDS011;1938;50.812;7.738;2022-10-15T13:10:29;4.10;;;1.20;;
3845;SDS011;1938;50.812;7.738;2022-10-15T13:13:00;3.47;;;1.10;;
3845;SDS011;1938;50.812;7.738;2022-10-15T13:15:28;4.63;;;1.40;;
3845;SDS011;1938;50.812;7.738;2022-10-15T13:18:03;2.40;;;0.90;;
3845;SDS011;1938;50.812;7.738;2022-10-15T13:20:36;2.87;;;1.00;;
3845;SDS011;1938;50.812;7.738;2022-10-15T13:25:33;2.80;;;0.90;;
3845;SDS011;1938;50.812;7.738;2022-10-15T13:27:59;4.67;;;1.27;;
3845;SDS011;1938;50.812;7.738;2022-10-15T13:30:25;4.07;;;1.10;;
3845;SDS011;1938;50.812;7.738;2022-10-15T13:32:51;2.70;;;1.10;;
3845;SDS011;1938;50.812;7.738;2022-10-15T13:35:21;2.93;;;1.13;;
3845;SDS011;1938;50.812;7.738;2022-10-15T13:37:50;3.37;;;1.57;;
3845;SDS011;1938;50.812;7.738;2022-10-15T13:40:20;6.40;;;1.13;;
3845;SDS011;1938;50.812;7.738;2022-10-15T13:43:05;3.00;;;1.10;;
3845;SDS011;1938;50.812;7.738;2022-10-15T13:45:45;2.60;;;1.10;;
3845;SDS011;1938;50.812;7.738;2022-10-15T13:48:11;3.70;;;0.80;;
3845;SDS011;1938;50.812;7.738;2022-10-15T13:50:45;3.90;;;0.80;;
3845;SDS011;1938;50.812;7.738;2022-10-15T13:53:20;2.40;;;0.90;;
3845;SDS011;1938;50.812;7.738;2022-10-15T13:55:50;2.20;;;0.90;;
3845;SDS011;1938;50.812;7.738;2022-10-15T14:08:49;3.40;;;1.47;;
3845;SDS011;1938;50.812;7.738;2022-10-15T14:11:17;4.37;;;1.30;;
3845;SDS011;1938;50.812;7.738;2022-10-15T14:13:48;3.00;;;1.03;;
3845;SDS011;1938;50.812;7.738;2022-10-15T14:16:19;3.40;;;1.03;;
3845;SDS011;1938;50.812;7.738;2022-10-15T14:21:36;2.40;;;1.10;;
3845;SDS011;1938;50.812;7.738;2022-10-15T14:24:11;2.67;;;0.80;;
3845;SDS011;1938;50.812;7.738;2022-10-15T14:26:40;2.20;;;0.90;;
3845;SDS011;1938;50.812;7.738;2022-10-15T14:29:12;3.57;;;0.80;;
3845;SDS011;1938;50.812;7.738;2022-10-15T14:31:44;2.57;;;0.80;;
3845;SDS011;1938;50.812;7.738;2022-10-15T14:37:26;2.20;;;0.80;;
3845;SDS011;1938;50.812;7.738;2022-10-15T14:40:02;2.53;;;0.90;;
3845;SDS011;1938;50.812;7.738;2022-10-15T14:42:34;7.10;;;0.70;;
3845;SDS011;1938;50.812;7.738;2022-10-15T14:45:13;2.20;;;0.83;;
3845;SDS011;1938;50.812;7.738;2022-10-15T14:47:51;2.43;;;0.90;;
3845;SDS011;1938;50.812;7.738;2022-10-15T14:50:29;2.23;;;0.83;;
3845;SDS011;1938;50.812;7.738;2022-10-15T14:52:57;2.23;;;0.93;;
3845;SDS011;1938;50.812;7.738;2022-10-15T14:55:28;2.10;;;0.70;;
3845;SDS011;1938;50.812;7.738;2022-10-15T14:57:57;2.30;;;0.80;;
3845;SDS011;1938;50.812;7.738;2022-10-15T15:00:32;4.13;;;1.00;;
3845;SDS011;1938;50.812;7.738;2022-10-15T15:03:16;2.20;;;0.80;;
3845;SDS011;1938;50.812;7.738;2022-10-15T15:05:47;2.30;;;0.90;;
3845;SDS011;1938;50.812;7.738;2022-10-15T15:08:13;2.20;;;0.80;;
3845;SDS011;1938;50.812;7.738;2022-10-15T15:10:40;4.30;;;1.00;;
3845;SDS011;1938;50.812;7.738;2022-10-15T15:13:09;2.80;;;1.00;;
3845;SDS011;1938;50.812;7.738;2022-10-15T15:15:38;3.70;;;1.10;;
3845;SDS011;1938;50.812;7.738;2022-10-15T15:18:07;4.50;;;0.80;;
3845;SDS011;1938;50.812;7.738;2022-10-15T15:20:35;3.53;;;2.00;;
3845;SDS011;1938;50.812;7.738;2022-10-15T15:23:00;4.73;;;1.00;;
3845;SDS011;1938;50.812;7.738;2022-10-15T15:25:30;3.03;;;1.33;;
3845;SDS011;1938;50.812;7.738;2022-10-15T15:27:58;2.40;;;1.00;;
3845;SDS011;1938;50.812;7.738;2022-10-15T15:30:25;3.33;;;1.00;;
3845;SDS011;1938;50.812;7.738;2022-10-15T15:32:53;2.63;;;0.93;;
3845;SDS011;1938;50.812;7.738;2022-10-15T15:37:52;5.30;;;1.33;;
3845;SDS011;1938;50.812;7.738;2022-10-15T15:40:18;3.40;;;1.33;;
3845;SDS011;1938;50.812;7.738;2022-10-15T15:42:44;5.80;;;1.20;;
3845;SDS011;1938;50.812;7.738;2022-10-15T15:45:20;4.73;;;1.30;;
3845;SDS011;1938;50.812;7.738;2022-10-15T15:47:48;6.20;;;1.70;;
3845;SDS011;1938;50.812;7.738;2022-10-15T15:50:15;6.10;;;1.00;;
3845;SDS011;1938;50.812;7.738;2022-10-15T15:52:41;4.07;;;0.97;;
3845;SDS011;1938;50.812;7.738;2022-10-15T15:55:07;2.40;;;1.00;;
3845;SDS011;1938;50.812;7.738;2022-10-15T15:57:33;2.77;;;1.17;;
3845;SDS011;1938;50.812;7.738;2022-10-15T15:59:58;2.30;;;0.90;;
3845;SDS011;1938;50.812;7.738;2022-10-15T16:02:24;13.13;;;1.17;;
3845;SDS011;1938;50.812;7.738;2022-10-15T16:04:49;6.03;;;1.20;;
3845;SDS011;1938;50.812;7.738;2022-10-15T16:07:15;2.73;;;1.10;;
3845;SDS011;1938;50.812;7.738;2022-10-15T16:09:40;2.03;;;0.77;;
3845;SDS011;1938;50.812;7.738;2022-10-15T16:12:06;2.27;;;0.80;;
3845;SDS011;1938;50.812;7.738;2022-10-15T16:14:32;4.27;;;1.10;;
3845;SDS011;1938;50.812;7.738;2022-10-15T16:16:57;2.93;;;1.13;;
3845;SDS011;1938;50.812;7.738;2022-10-15T16:19:23;3.63;;;0.93;;
3845;SDS011;1938;50.812;7.738;2022-10-15T16:21:50;3.13;;;0.90;;
3845;SDS011;1938;50.812;7.738;2022-10-15T16:24:16;2.80;;;0.90;;
3845;SDS011;1938;50.812;7.738;2022-10-15T16:26:41;2.87;;;1.03;;
3845;SDS011;1938;50.812;7.738;2022-10-15T16:29:07;2.40;;;1.00;;
3845;SDS011;1938;50.812;7.738;2022-10-15T16:31:34;4.20;;;1.40;;
3845;SDS011;1938;50.812;7.738;2022-10-15T16:34:04;2.40;;;0.93;;
3845;SDS011;1938;50.812;7.738;2022-10-15T16:36:29;2.40;;;1.00;;
3845;SDS011;1938;50.812;7.738;2022-10-15T16:38:56;2.30;;;0.90;;
3845;SDS011;1938;50.812;7.738;2022-10-15T16:41:21;4.03;;;1.00;;
3845;SDS011;1938;50.812;7.738;2022-10-15T16:43:47;2.93;;;1.30;;
3845;SDS011;1938;50.812;7.738;2022-10-15T16:46:14;2.70;;;1.20;;
3845;SDS011;1938;50.812;7.738;2022-10-15T16:48:42;2.83;;;1.10;;
3845;SDS011;1938;50.812;7.738;2022-10-15T16:51:09;4.27;;;2.40;;
3845;SDS011;1938;50.812;7.738;2022-10-15T16:53:36;3.23;;;1.10;;
3845;SDS011;1938;50.812;7.738;2022-10-15T16:56:22;4.67;;;0.90;;
3845;SDS011;1938;50.812;7.738;2022-10-15T16:58:49;3.97;;;1.13;;
3845;SDS011;1938;50.812;7.738;2022-10-15T17:01:18;3.67;;;1.20;;
3845;SDS011;1938;50.812;7.738;2022-10-15T17:03:46;2.80;;;1.00;;
3845;SDS011;1938;50.812;7.738;2022-10-15T17:06:17;3.47;;;1.00;;
3845;SDS011;1938;50.812;7.738;2022-10-15T17:08:54;3.10;;;1.20;;
3845;SDS011;1938;50.812;7.738;2022-10-15T17:11:27;2.90;;;1.10;;
3845;SDS011;1938;50.812;7.738;2022-10-15T17:13:55;6.63;;;2.40;;
3845;SDS011;1938;50.812;7.738;2022-10-15T17:16:24;3.03;;;1.30;;
3845;SDS011;1938;50.812;7.738;2022-10-15T17:18:55;2.60;;;1.20;;
3845;SDS011;1938;50.812;7.738;2022-10-15T17:21:23;5.60;;;1.10;;
3845;SDS011;1938;50.812;7.738;2022-10-15T17:23:51;4.17;;;1.40;;
3845;SDS011;1938;50.812;7.738;2022-10-15T17:26:19;4.57;;;1.50;;
3845;SDS011;1938;50.812;7.738;2022-10-15T17:28:47;5.90;;;1.83;;
3845;SDS011;1938;50.812;7.738;2022-10-15T17:31:14;3.50;;;1.57;;
3845;SDS011;1938;50.812;7.738;2022-10-15T17:33:42;5.20;;;1.30;;
3845;SDS011;1938;50.812;7.738;2022-10-15T17:36:09;7.50;;;1.67;;
3845;SDS011;1938;50.812;7.738;2022-10-15T17:38:37;2.80;;;1.40;;
3845;SDS011;1938;50.812;7.738;2022-10-15T17:41:21;3.67;;;1.40;;
3845;SDS011;1938;50.812;7.738;2022-10-15T17:43:49;3.23;;;1.10;;
3845;SDS011;1938;50.812;7.738;2022-10-15T17:46:16;3.97;;;1.40;;
3845;SDS011;1938;50.812;7.738;2022-10-15T17:48:43;2.83;;;1.07;;